createdAt,value
2018-07-05T00:00:33.162Z,16.31
2018-07-05T00:03:11.928Z,16.16
2018-07-05T00:05:50.915Z,16.02
2018-07-05T00:08:29.898Z,16.10
2018-07-05T00:11:08.753Z,15.84
2018-07-05T00:13:47.641Z,15.88
2018-07-05T00:16:26.545Z,15.80
2018-07-05T00:19:05.417Z,15.96
2018-07-05T00:21:44.306Z,16.05
2018-07-05T00:24:23.505Z,15.94
2018-07-05T00:27:02.574Z,15.68
2018-07-05T00:29:41.497Z,15.64
2018-07-05T00:32:20.474Z,15.59
2018-07-05T00:34:59.246Z,15.58
2018-07-05T00:37:38.093Z,15.56
2018-07-05T00:40:16.993Z,15.59
2018-07-05T00:42:56.045Z,15.47
2018-07-05T00:45:34.704Z,15.42
2018-07-05T00:48:13.573Z,15.39
2018-07-05T00:50:52.478Z,15.54
2018-07-05T00:53:31.393Z,15.95
2018-07-05T00:56:10.516Z,15.65
2018-07-05T00:58:49.253Z,15.58
2018-07-05T01:01:28.213Z,15.46
2018-07-05T01:04:07.037Z,15.52
2018-07-05T01:06:45.906Z,15.88
2018-07-05T01:09:24.888Z,15.94
2018-07-05T01:12:03.859Z,15.91
2018-07-05T01:14:42.787Z,15.89
2018-07-05T01:17:21.798Z,15.88
2018-07-05T01:20:00.662Z,15.91
2018-07-05T01:22:39.484Z,15.85
2018-07-05T01:25:18.364Z,15.65
2018-07-05T01:27:57.315Z,15.88
2018-07-05T01:30:36.180Z,15.57
2018-07-05T01:33:15.130Z,15.86
2018-07-05T01:35:54.046Z,15.70
2018-07-05T01:38:32.725Z,15.75
2018-07-05T01:41:11.565Z,15.37
2018-07-05T01:43:50.514Z,15.59
2018-07-05T01:46:29.489Z,15.87
2018-07-05T01:49:08.536Z,15.75
2018-07-05T01:51:47.468Z,15.46
2018-07-05T01:54:26.318Z,15.32
2018-07-05T01:57:05.241Z,15.26
2018-07-05T01:59:44.175Z,15.68
2018-07-05T02:02:23.035Z,15.47
2018-07-05T02:05:02.209Z,15.71
2018-07-05T02:07:41.669Z,15.68
2018-07-05T02:10:20.590Z,15.49
2018-07-05T02:12:59.581Z,15.76
2018-07-05T02:15:38.576Z,15.83
2018-07-05T02:18:17.509Z,15.49
2018-07-05T02:20:56.489Z,15.57
2018-07-05T02:23:35.474Z,15.29
2018-07-05T02:26:14.489Z,15.49
2018-07-05T02:28:53.472Z,15.79
2018-07-05T02:31:32.326Z,15.70
2018-07-05T02:34:11.484Z,15.46
2018-07-05T02:36:50.297Z,15.45
2018-07-05T02:39:34.750Z,15.53
2018-07-05T02:42:13.975Z,15.22
2018-07-05T02:44:53.325Z,15.27
2018-07-05T02:47:32.180Z,15.61
2018-07-05T02:50:11.026Z,15.70
2018-07-05T02:52:49.826Z,15.69
2018-07-05T02:55:28.536Z,15.61
2018-07-05T02:58:07.530Z,15.81
2018-07-05T03:00:46.483Z,15.63
2018-07-05T03:03:27.414Z,15.85
2018-07-05T03:06:06.427Z,15.98
2018-07-05T03:08:45.218Z,15.94
2018-07-05T03:11:24.151Z,15.89
2018-07-05T03:14:03.050Z,16.04
2018-07-05T03:16:42.026Z,16.07
2018-07-05T03:19:21.062Z,16.18
2018-07-05T03:22:01.033Z,16.27
2018-07-05T03:24:40.106Z,16.33
2018-07-05T03:27:18.970Z,16.49
2018-07-05T03:29:57.771Z,16.58
2018-07-05T03:32:36.641Z,16.58
2018-07-05T03:35:15.417Z,16.78
2018-07-05T03:37:54.147Z,16.59
2018-07-05T03:40:33.061Z,16.67
2018-07-05T03:43:11.942Z,16.67
2018-07-05T03:45:51.041Z,16.90
2018-07-05T03:48:30.336Z,17.01
2018-07-05T03:51:09.273Z,17.10
2018-07-05T03:53:48.110Z,17.18
2018-07-05T03:56:27.174Z,17.23
2018-07-05T03:59:05.966Z,17.47
2018-07-05T04:01:44.726Z,18.21
2018-07-05T04:04:23.574Z,18.64
2018-07-05T04:07:03.270Z,18.81
2018-07-05T04:09:42.113Z,18.61
2018-07-05T04:12:21.182Z,18.22
2018-07-05T04:14:59.997Z,18.00
2018-07-05T04:17:38.899Z,17.94
2018-07-05T04:20:17.801Z,17.88
2018-07-05T04:22:58.014Z,17.81
2018-07-05T04:25:37.011Z,17.93
2018-07-05T04:28:15.806Z,17.95
2018-07-05T04:30:54.706Z,17.92
2018-07-05T04:33:33.586Z,17.92
2018-07-05T04:36:12.566Z,17.79
2018-07-05T04:38:51.414Z,17.82
2018-07-05T04:41:30.210Z,17.82
2018-07-05T04:44:08.981Z,17.91
2018-07-05T04:46:47.937Z,17.93
2018-07-05T04:49:26.729Z,17.93
2018-07-05T04:52:05.581Z,17.87
2018-07-05T04:54:44.508Z,17.90
2018-07-05T04:57:23.462Z,17.85
2018-07-05T05:00:02.458Z,17.96
2018-07-05T05:02:41.349Z,18.04
2018-07-05T05:05:20.305Z,18.14
2018-07-05T05:07:59.257Z,18.09
2018-07-05T05:10:38.405Z,18.13
2018-07-05T05:13:17.257Z,18.16
2018-07-05T05:15:56.286Z,18.08
2018-07-05T05:18:35.158Z,18.13
2018-07-05T05:21:14.057Z,17.93
2018-07-05T05:23:53.002Z,17.85
2018-07-05T05:26:31.971Z,18.03
2018-07-05T05:29:10.717Z,18.13
2018-07-05T05:31:50.150Z,18.15
2018-07-05T05:34:29.007Z,18.08
2018-07-05T05:37:08.227Z,17.95
2018-07-05T05:39:47.073Z,18.04
2018-07-05T05:42:25.953Z,18.17
2018-07-05T05:45:04.865Z,18.23
2018-07-05T05:47:43.769Z,18.02
2018-07-05T05:50:22.797Z,18.16
2018-07-05T05:53:01.743Z,18.32
2018-07-05T05:55:40.663Z,18.36
2018-07-05T05:58:19.719Z,18.27
2018-07-05T06:00:58.497Z,18.40
2018-07-05T06:03:37.430Z,18.48
2018-07-05T06:06:16.356Z,18.43
2018-07-05T06:08:55.247Z,18.50
2018-07-05T06:11:34.167Z,18.54
2018-07-05T06:14:13.101Z,18.56
2018-07-05T06:16:52.298Z,18.57
2018-07-05T06:19:31.530Z,18.64
2018-07-05T06:22:10.364Z,18.68
2018-07-05T06:24:49.273Z,18.67
2018-07-05T06:27:28.401Z,18.66
2018-07-05T06:30:07.741Z,18.72
2018-07-05T06:32:46.730Z,18.81
2018-07-05T06:35:25.741Z,18.85
2018-07-05T06:38:04.610Z,18.86
2018-07-05T06:40:43.538Z,18.90
2018-07-05T06:43:22.533Z,18.89
2018-07-05T06:46:01.505Z,18.98
2018-07-05T06:48:40.318Z,19.02
2018-07-05T06:51:19.117Z,19.05
2018-07-05T06:53:58.098Z,19.05
2018-07-05T06:56:37.074Z,18.85
2018-07-05T06:59:16.666Z,18.99
2018-07-05T07:01:55.471Z,19.07
2018-07-05T07:04:34.400Z,19.15
2018-07-05T07:07:13.349Z,19.22
2018-07-05T07:09:52.318Z,19.20
2018-07-05T07:12:31.253Z,19.17
2018-07-05T07:15:10.146Z,19.10
2018-07-05T07:17:49.266Z,19.19
2018-07-05T07:20:28.183Z,19.22
2018-07-05T07:23:07.103Z,19.32
2018-07-05T07:25:46.137Z,19.38
2018-07-05T07:28:24.945Z,19.29
2018-07-05T07:31:03.809Z,19.34
2018-07-05T07:33:42.669Z,19.38
2018-07-05T07:36:21.560Z,19.43
2018-07-05T07:39:00.442Z,19.44
2018-07-05T07:41:39.369Z,19.50
2018-07-05T07:44:05.815Z,19.46
2018-07-05T07:46:32.245Z,19.41
2018-07-05T07:48:58.693Z,19.51
2018-07-05T07:51:25.181Z,19.56
2018-07-05T07:53:51.970Z,19.58
2018-07-05T07:56:18.606Z,19.59
2018-07-05T07:58:45.051Z,19.60
2018-07-05T08:01:11.508Z,19.57
2018-07-05T08:03:38.431Z,19.65
2018-07-05T08:06:05.081Z,19.66
2018-07-05T08:08:31.509Z,19.59
2018-07-05T08:10:57.991Z,19.71
2018-07-05T08:13:24.465Z,19.75
2018-07-05T08:15:51.354Z,19.76
2018-07-05T08:18:17.797Z,19.76
2018-07-05T08:20:44.249Z,19.80
2018-07-05T08:23:10.705Z,19.82
2018-07-05T08:25:37.145Z,19.83
2018-07-05T08:28:03.607Z,19.77
2018-07-05T08:30:30.067Z,19.84
2018-07-05T08:32:56.498Z,19.92
2018-07-05T08:35:22.988Z,19.93
2018-07-05T08:37:49.452Z,19.96
2018-07-05T08:40:15.899Z,19.95
2018-07-05T08:42:42.342Z,20.01
2018-07-05T08:45:08.769Z,20.07
2018-07-05T08:47:35.190Z,20.15
2018-07-05T08:50:01.627Z,20.20
2018-07-05T08:52:28.046Z,20.21
2018-07-05T08:54:54.485Z,20.20
2018-07-05T08:57:20.922Z,19.92
2018-07-05T08:59:47.350Z,20.20
2018-07-05T09:02:13.773Z,20.23
2018-07-05T09:04:40.201Z,20.26
2018-07-05T09:07:06.645Z,20.29
2018-07-05T09:09:33.077Z,20.34
2018-07-05T09:11:59.589Z,20.32
2018-07-05T09:14:25.966Z,20.32
2018-07-05T09:16:52.397Z,20.31
2018-07-05T09:19:19.033Z,20.29
2018-07-05T09:21:45.461Z,20.32
2018-07-05T09:24:11.922Z,20.32
2018-07-05T09:26:38.446Z,20.15
2018-07-05T09:29:05.105Z,20.33
2018-07-05T09:31:31.545Z,20.32
2018-07-05T09:33:57.987Z,20.41
2018-07-05T09:36:24.462Z,20.47
2018-07-05T09:38:50.919Z,20.24
2018-07-05T09:41:17.368Z,20.35
2018-07-05T09:43:43.818Z,20.46
2018-07-05T09:46:10.275Z,20.52
2018-07-05T09:48:36.716Z,20.56
2018-07-05T09:51:03.157Z,20.56
2018-07-05T09:53:29.620Z,20.64
2018-07-05T09:55:56.082Z,20.71
2018-07-05T09:58:22.525Z,20.73
2018-07-05T10:00:51.124Z,20.78
2018-07-05T10:03:19.308Z,20.76
2018-07-05T10:05:45.798Z,20.80
2018-07-05T10:08:12.440Z,20.83
2018-07-05T10:10:39.069Z,20.83
2018-07-05T10:13:05.658Z,20.78
2018-07-05T10:15:32.071Z,20.82
2018-07-05T10:17:58.602Z,20.89
2018-07-05T10:20:25.051Z,20.97
2018-07-05T10:22:51.509Z,21.01
2018-07-05T10:25:17.970Z,21.00
2018-07-05T10:27:44.419Z,20.98
2018-07-05T10:30:23.479Z,21.01
2018-07-05T10:33:02.630Z,21.03
2018-07-05T10:35:29.115Z,21.07
2018-07-05T10:37:57.965Z,21.08
2018-07-05T10:40:37.897Z,21.12
2018-07-05T10:43:16.986Z,21.20
2018-07-05T10:45:55.747Z,21.16
2018-07-05T10:48:34.612Z,21.12
2018-07-05T10:51:13.505Z,21.11
2018-07-05T10:53:52.508Z,21.08
2018-07-05T10:56:31.305Z,21.15
2018-07-05T10:59:10.261Z,21.14
2018-07-05T11:01:49.242Z,21.17
2018-07-05T11:04:28.037Z,21.21
2018-07-05T11:07:07.004Z,21.21
2018-07-05T11:09:45.875Z,21.21
2018-07-05T11:12:24.712Z,21.22
2018-07-05T11:15:03.646Z,21.19
2018-07-05T11:17:42.531Z,21.21
2018-07-05T11:20:21.657Z,21.23
2018-07-05T11:23:00.431Z,21.28
2018-07-05T11:25:39.287Z,21.35
2018-07-05T11:28:18.269Z,21.43
2018-07-05T11:30:57.061Z,21.51
2018-07-05T11:33:35.985Z,21.49
2018-07-05T11:36:14.849Z,21.44
2018-07-05T11:38:53.957Z,21.41
2018-07-05T11:41:32.722Z,21.43
2018-07-05T11:44:11.570Z,21.35
2018-07-05T11:46:50.587Z,21.38
2018-07-05T11:49:29.472Z,21.24
2018-07-05T11:52:08.569Z,21.34
2018-07-05T11:54:47.418Z,21.39
2018-07-05T11:57:26.344Z,21.35
2018-07-05T12:00:05.541Z,21.40
2018-07-05T12:02:44.606Z,21.29
2018-07-05T12:05:23.868Z,21.36
2018-07-05T12:08:02.722Z,21.34
2018-07-05T12:10:41.751Z,21.31
2018-07-05T12:13:21.682Z,21.30
2018-07-05T12:16:00.548Z,21.20
2018-07-05T12:18:39.364Z,21.27
2018-07-05T12:21:18.216Z,21.29
2018-07-05T12:23:57.178Z,21.28
2018-07-05T12:26:36.260Z,21.20
2018-07-05T12:29:15.262Z,21.26
2018-07-05T12:31:54.169Z,21.25
2018-07-05T12:34:33.098Z,21.27
2018-07-05T12:37:11.858Z,21.25
2018-07-05T12:39:50.991Z,21.24
2018-07-05T12:42:30.019Z,21.23
2018-07-05T12:45:08.836Z,21.25
2018-07-05T12:47:47.602Z,21.23
2018-07-05T12:50:26.330Z,21.21
2018-07-05T12:53:05.367Z,21.25
2018-07-05T12:55:45.746Z,21.23
2018-07-05T12:58:24.516Z,21.25
2018-07-05T13:01:04.386Z,21.22
2018-07-05T13:03:43.113Z,21.21
2018-07-05T13:06:22.001Z,21.17
2018-07-05T13:09:00.893Z,21.15
2018-07-05T13:11:39.843Z,21.17
2018-07-05T13:14:18.706Z,21.15
2018-07-05T13:16:57.682Z,21.15
2018-07-05T13:19:36.682Z,21.19
2018-07-05T13:22:15.431Z,21.18
2018-07-05T13:24:54.270Z,21.15
2018-07-05T13:27:33.246Z,21.17
2018-07-05T13:30:12.345Z,21.17
2018-07-05T13:32:51.219Z,21.17
2018-07-05T13:35:30.261Z,21.13
2018-07-05T13:38:09.124Z,21.13
2018-07-05T13:40:48.032Z,21.14
2018-07-05T13:43:26.893Z,21.13
2018-07-05T13:46:05.908Z,21.10
2018-07-05T13:48:44.645Z,21.05
2018-07-05T13:51:23.478Z,21.06
2018-07-05T13:54:02.405Z,21.05
2018-07-05T13:56:41.368Z,21.08
2018-07-05T13:59:20.230Z,21.09
2018-07-05T14:01:59.107Z,21.07
2018-07-05T14:04:37.996Z,21.08
2018-07-05T14:07:16.942Z,21.09
2018-07-05T14:09:55.827Z,21.08
2018-07-05T14:12:34.738Z,21.04
2018-07-05T14:15:13.657Z,21.06
2018-07-05T14:17:58.447Z,21.09
2018-07-05T14:20:37.152Z,21.12
2018-07-05T14:23:16.057Z,21.19
2018-07-05T14:25:55.095Z,21.15
2018-07-05T14:28:33.910Z,21.10
2018-07-05T14:31:12.865Z,21.07
2018-07-05T14:33:51.857Z,20.98
2018-07-05T14:36:30.802Z,20.96
2018-07-05T14:39:09.623Z,20.99
2018-07-05T14:41:48.499Z,20.93
2018-07-05T14:44:27.514Z,20.96
2018-07-05T14:47:06.407Z,20.93
2018-07-05T14:49:45.336Z,20.93
2018-07-05T14:52:24.264Z,20.96
2018-07-05T14:55:03.136Z,21.00
2018-07-05T14:57:42.103Z,21.00
2018-07-05T15:00:20.853Z,21.00
2018-07-05T15:02:59.792Z,21.04
2018-07-05T15:05:38.670Z,21.07
2018-07-05T15:08:17.575Z,21.06
2018-07-05T15:10:56.394Z,20.87
2018-07-05T15:13:35.300Z,21.08
2018-07-05T15:16:14.162Z,21.07
2018-07-05T15:18:53.002Z,21.09
2018-07-05T15:21:31.884Z,21.12
2018-07-05T15:24:10.765Z,21.14
2018-07-05T15:26:49.620Z,21.19
2018-07-05T15:29:28.566Z,21.19
2018-07-05T15:32:07.434Z,21.15
2018-07-05T15:34:46.321Z,21.20
2018-07-05T15:37:25.200Z,21.20
2018-07-05T15:40:04.084Z,21.21
2018-07-05T15:42:43.203Z,21.18
2018-07-05T15:45:22.024Z,21.15
2018-07-05T15:48:00.992Z,21.15
2018-07-05T15:50:39.932Z,21.12
2018-07-05T15:53:18.980Z,21.14
2018-07-05T15:55:57.880Z,21.16
2018-07-05T15:58:36.889Z,21.12
2018-07-05T16:01:15.752Z,21.11
2018-07-05T16:03:54.958Z,21.14
2018-07-05T16:06:33.894Z,21.19
2018-07-05T16:09:12.772Z,21.22
2018-07-05T16:11:51.684Z,21.21
2018-07-05T16:14:30.522Z,21.12
2018-07-05T16:17:09.421Z,21.12
2018-07-05T16:19:48.494Z,21.09
2018-07-05T16:22:27.290Z,21.12
2018-07-05T16:25:06.126Z,21.13
2018-07-05T16:27:45.154Z,21.15
2018-07-05T16:30:24.184Z,21.15
2018-07-05T16:33:03.039Z,21.18
2018-07-05T16:35:42.087Z,21.22
2018-07-05T16:38:20.929Z,21.22
2018-07-05T16:40:59.868Z,21.22
2018-07-05T16:43:38.750Z,21.20
2018-07-05T16:46:17.729Z,21.19
2018-07-05T16:48:56.653Z,21.21
2018-07-05T16:51:35.660Z,21.22
2018-07-05T16:54:14.642Z,21.20
2018-07-05T16:56:53.633Z,21.10
2018-07-05T16:59:32.746Z,21.07
2018-07-05T17:05:42.591Z,21.10
2018-07-05T17:08:21.438Z,21.09
2018-07-05T17:11:00.415Z,21.10
2018-07-05T17:13:39.313Z,21.10
2018-07-05T17:16:18.289Z,21.10
2018-07-05T17:18:57.285Z,21.09
2018-07-05T17:21:36.097Z,21.10
2018-07-05T17:24:14.995Z,21.11
2018-07-05T17:26:53.878Z,21.11
2018-07-05T17:29:32.884Z,21.11
2018-07-05T17:32:11.727Z,21.11
2018-07-05T17:34:50.845Z,21.08
2018-07-05T17:37:29.794Z,21.06
2018-07-05T17:40:08.704Z,21.01
2018-07-05T17:42:47.477Z,20.98
2018-07-05T17:45:26.413Z,20.98
2018-07-05T17:48:05.994Z,20.97
2018-07-05T17:50:44.816Z,20.95
2018-07-05T17:53:23.830Z,20.94
2018-07-05T17:56:02.613Z,20.91
2018-07-05T17:58:41.461Z,20.86
2018-07-05T18:01:20.362Z,20.83
2018-07-05T18:03:59.309Z,20.79
2018-07-05T18:06:38.183Z,20.83
2018-07-05T18:09:16.909Z,20.79
2018-07-05T18:11:55.857Z,20.79
2018-07-05T18:14:34.833Z,20.78
2018-07-05T18:17:13.607Z,20.78
2018-07-05T18:19:52.510Z,20.79
2018-07-05T18:22:31.289Z,20.75
2018-07-05T18:25:10.279Z,20.76
2018-07-05T18:27:49.423Z,20.75
2018-07-05T18:30:28.258Z,20.73
2018-07-05T18:33:07.146Z,20.68
2018-07-05T18:35:46.066Z,20.73
2018-07-05T18:38:24.894Z,20.69
2018-07-05T18:41:03.812Z,20.67
2018-07-05T18:43:43.029Z,20.70
2018-07-05T18:46:21.918Z,20.69
2018-07-05T18:49:00.835Z,20.70
2018-07-05T18:51:39.729Z,20.70
2018-07-05T18:54:18.661Z,20.69
2018-07-05T18:56:57.510Z,20.70
2018-07-05T18:59:36.407Z,20.71
2018-07-05T19:02:15.339Z,20.67
2018-07-05T19:04:54.199Z,20.64
2018-07-05T19:07:33.049Z,20.42
2018-07-05T19:10:11.840Z,20.55
2018-07-05T19:12:50.697Z,20.57
2018-07-05T19:15:29.645Z,20.54
2018-07-05T19:18:08.337Z,20.59
2018-07-05T19:20:47.363Z,20.57
2018-07-05T19:23:26.180Z,20.48
2018-07-05T19:26:05.071Z,20.28
2018-07-05T19:28:44.034Z,20.40
2018-07-05T19:31:22.919Z,20.35
2018-07-05T19:34:01.930Z,20.23
2018-07-05T19:36:56.400Z,20.22
2018-07-05T19:39:35.299Z,19.96
2018-07-05T19:42:14.101Z,19.91
2018-07-05T19:44:52.978Z,19.86
2018-07-05T19:47:31.777Z,19.74
2018-07-05T19:50:10.686Z,19.65
2018-07-05T19:52:49.509Z,19.83
2018-07-05T19:55:28.384Z,19.93
2018-07-05T19:58:07.284Z,19.87
2018-07-05T20:00:46.110Z,19.80
2018-07-05T20:03:24.959Z,19.76
2018-07-05T20:06:03.885Z,19.74
2018-07-05T20:08:42.727Z,19.64
2018-07-05T20:11:21.836Z,19.68
2018-07-05T20:14:00.621Z,19.65
2018-07-05T20:16:39.453Z,19.54
2018-07-05T20:19:18.302Z,19.37
2018-07-05T20:21:57.272Z,19.30
2018-07-05T20:24:36.184Z,19.37
2018-07-05T20:27:15.102Z,19.31
2018-07-05T20:29:56.261Z,19.17
2018-07-05T20:32:35.096Z,19.12
2018-07-05T20:35:14.038Z,19.01
2018-07-05T20:37:52.979Z,18.99
2018-07-05T20:40:31.945Z,19.03
2018-07-05T20:43:10.872Z,18.97
2018-07-05T20:45:49.789Z,18.96
2018-07-05T20:48:28.792Z,18.99
2018-07-05T20:51:07.675Z,19.00
2018-07-05T20:53:47.253Z,18.99
2018-07-05T20:56:26.202Z,18.69
2018-07-05T20:59:04.951Z,18.79
2018-07-05T21:01:43.781Z,18.85
2018-07-05T21:04:22.668Z,18.65
2018-07-05T21:07:01.592Z,18.56
2018-07-05T21:09:40.587Z,18.73
2018-07-05T21:12:19.476Z,18.55
2018-07-05T21:14:58.329Z,18.63
2018-07-05T21:17:37.324Z,18.54
2018-07-05T21:20:16.124Z,18.60
2018-07-05T21:22:54.980Z,18.33
2018-07-05T21:25:33.984Z,18.42
2018-07-05T21:28:12.861Z,18.48
2018-07-05T21:30:51.606Z,18.50
2018-07-05T21:33:30.480Z,18.33
2018-07-05T21:36:09.415Z,18.25
2018-07-05T21:38:48.278Z,18.02
2018-07-05T21:41:27.109Z,17.59
2018-07-05T21:44:05.967Z,17.89
2018-07-05T21:46:44.870Z,18.28
2018-07-05T21:49:23.801Z,18.10
2018-07-05T21:52:02.508Z,17.50
2018-07-05T21:54:41.423Z,17.49
2018-07-05T21:57:20.326Z,17.46
2018-07-05T21:59:59.157Z,17.76
2018-07-05T22:02:37.994Z,17.70
2018-07-05T22:05:16.807Z,17.81
2018-07-05T22:07:55.662Z,17.90
2018-07-05T22:10:34.457Z,17.32
2018-07-05T22:13:13.291Z,17.19
2018-07-05T22:15:52.167Z,17.14
2018-07-05T22:18:36.655Z,17.00
2018-07-05T22:21:19.309Z,16.98
2018-07-05T22:24:03.661Z,17.37
2018-07-05T22:26:43.484Z,17.09
2018-07-05T22:29:27.962Z,17.09
2018-07-05T22:32:06.763Z,16.88
2018-07-05T22:34:45.604Z,16.85
2018-07-05T22:37:24.413Z,16.71
2018-07-05T22:40:03.336Z,16.75
2018-07-05T22:42:42.018Z,16.60
2018-07-05T22:45:20.861Z,16.62
2018-07-05T22:47:59.821Z,16.58
2018-07-05T22:50:38.821Z,16.40
2018-07-05T22:53:17.506Z,16.68
2018-07-05T22:55:56.402Z,16.76
2018-07-05T22:58:35.429Z,16.45
2018-07-05T23:01:14.272Z,16.33
2018-07-05T23:03:53.285Z,16.57
2018-07-05T23:06:32.195Z,16.35
2018-07-05T23:09:11.085Z,16.98
2018-07-05T23:11:50.097Z,16.84
2018-07-05T23:14:28.990Z,16.89
2018-07-05T23:17:07.935Z,16.87
2018-07-05T23:19:46.622Z,16.66
2018-07-05T23:22:25.668Z,16.32
2018-07-05T23:25:05.424Z,16.29
2018-07-05T23:27:44.431Z,16.31
2018-07-05T23:30:25.669Z,16.07
2018-07-05T23:33:04.523Z,16.41
2018-07-05T23:35:43.459Z,16.31
2018-07-05T23:38:22.389Z,16.64
2018-07-05T23:41:01.327Z,16.25
2018-07-05T23:43:40.278Z,16.43
2018-07-05T23:46:19.282Z,16.68
2018-07-05T23:48:58.325Z,16.49
2018-07-05T23:51:37.111Z,16.40
2018-07-05T23:54:16.121Z,16.49
2018-07-05T23:56:55.075Z,16.56
2018-07-05T23:59:34.001Z,16.42
